createdAt,value
2022-08-03T00:01:37.847Z,1.65
2022-08-03T00:04:06.601Z,1.50
2022-08-03T00:06:37.260Z,1.65
2022-08-03T00:09:06.544Z,1.35
2022-08-03T00:11:34.827Z,1.42
2022-08-03T00:14:02.962Z,2.00
2022-08-03T00:16:30.746Z,1.33
2022-08-03T00:18:58.669Z,1.52
2022-08-03T00:21:29.533Z,1.00
2022-08-03T00:23:58.884Z,1.77
2022-08-03T00:26:26.766Z,1.52
2022-08-03T00:28:54.601Z,1.05
2022-08-03T00:31:39.773Z,1.83
2022-08-03T00:34:11.008Z,1.88
2022-08-03T00:36:40.738Z,1.70
2022-08-03T00:39:10.326Z,1.40
2022-08-03T00:41:38.197Z,1.25
2022-08-03T00:44:06.537Z,1.38
2022-08-03T00:46:34.439Z,1.85
2022-08-03T00:49:03.044Z,1.80
2022-08-03T00:51:30.927Z,1.23
2022-08-03T00:53:58.803Z,1.60
2022-08-03T00:56:28.199Z,1.30
2022-08-03T00:58:58.760Z,1.27
2022-08-03T01:01:26.677Z,1.30
2022-08-03T01:04:00.178Z,1.58
2022-08-03T01:06:36.503Z,1.77
2022-08-03T01:09:09.890Z,1.20
2022-08-03T01:12:01.016Z,1.50
2022-08-03T01:14:35.500Z,0.90
2022-08-03T01:17:13.066Z,1.40
2022-08-03T01:19:50.508Z,1.17
2022-08-03T01:22:47.408Z,1.60
2022-08-03T01:25:28.100Z,1.30
2022-08-03T01:28:11.438Z,1.20
2022-08-03T01:30:44.174Z,1.10
2022-08-03T01:33:16.599Z,1.10
2022-08-03T01:35:47.987Z,1.10
2022-08-03T01:38:23.347Z,1.88
2022-08-03T01:40:54.606Z,1.30
2022-08-03T01:44:28.231Z,1.40
2022-08-03T01:46:20.545Z,1.50
2022-08-03T01:48:49.920Z,1.05
2022-08-03T01:51:20.447Z,1.42
2022-08-03T01:53:51.105Z,1.17
2022-08-03T01:56:20.813Z,1.20
2022-08-03T01:58:50.772Z,1.52
2022-08-03T02:01:22.897Z,1.50
2022-08-03T02:03:56.663Z,1.08
2022-08-03T02:07:01.772Z,1.52
2022-08-03T02:09:20.923Z,1.73
2022-08-03T02:11:50.515Z,1.30
2022-08-03T02:14:20.961Z,1.08
2022-08-03T02:16:51.569Z,1.40
2022-08-03T02:19:20.110Z,1.27
2022-08-03T02:21:56.637Z,1.20
2022-08-03T02:24:29.744Z,1.00
2022-08-03T02:26:58.535Z,1.23
2022-08-03T02:29:40.311Z,1.48
2022-08-03T02:32:16.509Z,1.20
2022-08-03T02:34:49.995Z,1.30
2022-08-03T02:37:20.707Z,1.33
2022-08-03T02:39:51.989Z,1.55
2022-08-03T02:42:24.409Z,1.70
2022-08-03T02:44:56.271Z,1.77
2022-08-03T02:47:27.334Z,1.70
2022-08-03T02:49:57.009Z,1.48
2022-08-03T02:52:29.027Z,1.45
2022-08-03T02:54:59.807Z,1.95
2022-08-03T02:57:29.608Z,1.48
2022-08-03T02:59:59.241Z,2.85
2022-08-03T03:02:30.131Z,1.60
2022-08-03T03:05:56.152Z,1.52
2022-08-03T03:07:52.087Z,1.27
2022-08-03T03:10:22.571Z,1.52
2022-08-03T03:12:52.058Z,1.17
2022-08-03T03:15:20.164Z,1.45
2022-08-03T03:17:50.690Z,1.45
2022-08-03T03:20:29.046Z,1.45
2022-08-03T03:22:59.924Z,2.25
2022-08-03T03:25:29.017Z,1.50
2022-08-03T03:27:57.796Z,1.33
2022-08-03T03:30:26.489Z,1.33
2022-08-03T03:32:56.222Z,1.38
2022-08-03T03:35:24.572Z,1.60
2022-08-03T03:37:53.573Z,1.75
2022-08-03T03:40:21.757Z,1.60
2022-08-03T03:42:50.508Z,1.88
2022-08-03T03:45:19.756Z,1.85
2022-08-03T03:47:48.119Z,1.60
2022-08-03T03:50:20.283Z,1.35
2022-08-03T03:52:48.191Z,1.50
2022-08-03T03:55:19.527Z,1.20
2022-08-03T03:57:47.511Z,1.50
2022-08-03T04:00:17.355Z,1.55
2022-08-03T04:02:45.498Z,1.40
2022-08-03T04:05:31.518Z,1.40
2022-08-03T04:08:20.914Z,1.50
2022-08-03T04:11:00.395Z,1.58
2022-08-03T04:13:32.190Z,1.30
2022-08-03T04:16:00.978Z,1.83
2022-08-03T04:18:32.703Z,1.52
2022-08-03T04:21:04.942Z,1.50
2022-08-03T04:23:36.694Z,1.45
2022-08-03T04:26:07.624Z,1.70
2022-08-03T04:28:36.844Z,2.92
2022-08-03T04:31:06.455Z,2.58
2022-08-03T04:33:36.345Z,2.38
2022-08-03T04:36:07.829Z,2.40
2022-08-03T04:38:41.467Z,2.60
2022-08-03T04:41:10.109Z,2.92
2022-08-03T04:43:40.701Z,3.00
2022-08-03T04:46:09.500Z,1.60
2022-08-03T04:48:37.783Z,2.00
2022-08-03T04:51:06.158Z,1.70
2022-08-03T04:53:34.086Z,1.85
2022-08-03T04:56:07.600Z,1.55
2022-08-03T04:58:35.597Z,2.03
2022-08-03T05:01:03.693Z,1.52
2022-08-03T05:03:32.597Z,1.58
2022-08-03T05:06:01.487Z,1.88
2022-08-03T05:08:30.345Z,1.65
2022-08-03T05:10:59.678Z,1.38
2022-08-03T05:13:29.036Z,1.80
2022-08-03T05:15:57.014Z,1.38
2022-08-03T05:18:25.067Z,1.55
2022-08-03T05:20:53.020Z,1.60
2022-08-03T05:23:21.016Z,1.67
2022-08-03T05:25:49.999Z,1.50
2022-08-03T05:28:18.219Z,2.60
2022-08-03T05:30:47.561Z,1.90
2022-08-03T05:33:15.696Z,1.77
2022-08-03T05:35:57.604Z,2.00
2022-08-03T05:38:34.840Z,1.98
2022-08-03T05:41:22.198Z,2.10
2022-08-03T05:43:52.260Z,1.63
2022-08-03T05:46:22.623Z,1.60
2022-08-03T05:48:50.738Z,2.70
2022-08-03T05:51:18.675Z,1.55
2022-08-03T05:53:46.845Z,1.33
2022-08-03T05:56:16.448Z,1.52
2022-08-03T05:58:45.999Z,1.92
2022-08-03T06:01:14.048Z,1.63
2022-08-03T06:03:43.454Z,1.35
2022-08-03T06:06:11.652Z,1.40
2022-08-03T06:08:40.208Z,2.00
2022-08-03T06:11:08.211Z,1.50
2022-08-03T06:13:36.756Z,1.52
2022-08-03T06:16:05.014Z,1.88
2022-08-03T06:18:32.981Z,1.92
2022-08-03T06:21:11.068Z,2.17
2022-08-03T06:23:53.420Z,1.10
2022-08-03T06:26:24.677Z,1.48
2022-08-03T06:28:54.272Z,1.73
2022-08-03T06:31:23.971Z,1.30
2022-08-03T06:34:32.575Z,1.42
2022-08-03T06:36:41.607Z,1.40
2022-08-03T06:39:09.503Z,1.10
2022-08-03T06:41:44.599Z,1.50
2022-08-03T06:44:13.302Z,1.30
2022-08-03T06:46:42.349Z,1.13
2022-08-03T06:49:10.495Z,1.08
2022-08-03T06:52:04.061Z,1.40
2022-08-03T06:54:27.908Z,1.02
2022-08-03T06:56:55.926Z,1.20
2022-08-03T07:00:10.594Z,1.10
2022-08-03T07:02:12.112Z,1.40
2022-08-03T07:04:48.161Z,1.77
2022-08-03T07:07:16.152Z,1.38
2022-08-03T07:09:56.577Z,1.15
2022-08-03T07:12:27.434Z,1.38
2022-08-03T07:14:59.983Z,1.00
2022-08-03T07:17:29.841Z,1.35
2022-08-03T07:19:57.984Z,1.05
2022-08-03T07:22:26.368Z,0.95
2022-08-03T07:24:55.641Z,1.23
2022-08-03T07:27:23.639Z,1.30
2022-08-03T07:29:51.607Z,1.52
2022-08-03T07:32:19.786Z,1.33
2022-08-03T07:34:47.852Z,1.10
2022-08-03T07:37:15.744Z,1.52
2022-08-03T07:39:44.712Z,1.00
2022-08-03T07:42:14.235Z,1.73
2022-08-03T07:44:42.591Z,1.40
2022-08-03T07:47:10.564Z,1.20
2022-08-03T07:49:50.872Z,0.90
2022-08-03T07:52:36.707Z,0.98
2022-08-03T07:55:06.320Z,1.27
2022-08-03T07:57:36.419Z,0.82
2022-08-03T08:00:06.250Z,1.00
2022-08-03T08:02:40.272Z,1.40
2022-08-03T08:05:10.706Z,1.08
2022-08-03T08:07:39.045Z,1.35
2022-08-03T08:10:09.975Z,1.50
2022-08-03T08:12:40.055Z,1.17
2022-08-03T08:15:09.333Z,1.13
2022-08-03T08:17:43.458Z,1.50
2022-08-03T08:20:12.528Z,1.95
2022-08-03T08:22:40.748Z,1.90
2022-08-03T08:25:09.801Z,2.08
2022-08-03T08:28:22.275Z,1.70
2022-08-03T08:30:34.201Z,1.73
2022-08-03T08:33:03.200Z,2.03
2022-08-03T08:35:31.401Z,1.92
2022-08-03T08:38:05.810Z,2.00
2022-08-03T08:40:34.227Z,2.30
2022-08-03T08:43:03.576Z,1.88
2022-08-03T08:45:31.545Z,2.17
2022-08-03T08:48:05.427Z,2.45
2022-08-03T08:50:37.724Z,2.45
2022-08-03T08:53:09.680Z,2.25
2022-08-03T08:55:58.655Z,2.05
2022-08-03T08:58:30.332Z,2.55
2022-08-03T09:00:58.410Z,2.45
2022-08-03T09:03:30.262Z,2.78
2022-08-03T09:06:00.684Z,2.30
2022-08-03T09:08:29.479Z,2.08
2022-08-03T09:10:57.416Z,2.00
2022-08-03T09:13:25.720Z,1.88
2022-08-03T09:16:14.216Z,2.40
2022-08-03T09:18:43.468Z,2.03
2022-08-03T09:21:38.019Z,1.80
2022-08-03T09:24:16.569Z,1.80
2022-08-03T09:26:54.178Z,2.25
2022-08-03T09:29:22.924Z,1.98
2022-08-03T09:32:02.587Z,1.63
2022-08-03T09:34:30.728Z,1.50
2022-08-03T09:36:58.929Z,1.50
2022-08-03T09:39:41.231Z,1.95
2022-08-03T09:42:11.621Z,1.90
2022-08-03T09:44:45.610Z,1.60
2022-08-03T09:47:16.185Z,1.70
2022-08-03T09:49:44.900Z,1.73
2022-08-03T09:52:38.412Z,1.83
2022-08-03T09:56:05.105Z,1.83
2022-08-03T09:58:06.437Z,1.70
2022-08-03T10:00:54.080Z,2.15
2022-08-03T10:03:24.979Z,2.22
2022-08-03T10:05:58.978Z,1.90
2022-08-03T10:08:27.936Z,1.80
2022-08-03T10:10:58.451Z,1.88
2022-08-03T10:13:26.352Z,1.88
2022-08-03T10:16:22.134Z,2.10
2022-08-03T10:18:43.506Z,2.13
2022-08-03T10:21:17.672Z,2.10
2022-08-03T10:23:46.544Z,1.88
2022-08-03T10:26:19.124Z,2.00
2022-08-03T10:28:51.096Z,1.80
2022-08-03T10:31:21.268Z,2.30
2022-08-03T10:33:53.416Z,2.10
2022-08-03T10:36:24.731Z,2.60
2022-08-03T10:38:54.233Z,2.13
2022-08-03T10:41:24.262Z,2.47
2022-08-03T10:43:57.856Z,2.28
2022-08-03T10:46:27.976Z,2.35
2022-08-03T10:48:58.252Z,2.03
2022-08-03T10:51:30.494Z,2.28
2022-08-03T10:53:59.034Z,2.35
2022-08-03T10:57:03.431Z,2.42
2022-08-03T11:00:03.432Z,2.42
2022-08-03T11:03:14.059Z,2.60
2022-08-03T11:05:44.812Z,2.05
2022-08-03T11:08:35.380Z,1.70
2022-08-03T11:11:24.970Z,1.80
2022-08-03T11:14:02.735Z,1.50
2022-08-03T11:16:32.258Z,1.48
2022-08-03T11:19:02.755Z,1.60
2022-08-03T11:21:57.846Z,1.48
2022-08-03T11:25:00.742Z,1.00
2022-08-03T11:27:33.552Z,1.60
2022-08-03T11:30:05.143Z,1.85
2022-08-03T11:33:01.372Z,1.20
2022-08-03T11:35:31.469Z,1.52
2022-08-03T11:38:09.118Z,1.45
2022-08-03T11:40:40.020Z,1.10
2022-08-03T11:43:09.312Z,1.83
2022-08-03T11:45:38.139Z,1.67
2022-08-03T11:48:17.340Z,1.23
2022-08-03T11:50:46.364Z,1.20
2022-08-03T11:53:19.135Z,0.75
2022-08-03T11:55:49.831Z,1.38
2022-08-03T11:59:16.528Z,1.75
2022-08-03T12:01:08.749Z,1.45
2022-08-03T12:03:37.160Z,1.25
2022-08-03T12:06:10.713Z,1.33
2022-08-03T12:08:40.528Z,1.08
2022-08-03T12:11:10.356Z,1.40
2022-08-03T12:14:43.876Z,1.10
2022-08-03T12:16:31.485Z,1.25
2022-08-03T12:19:00.659Z,1.35
2022-08-03T12:21:29.251Z,0.75
2022-08-03T12:24:03.970Z,1.00
2022-08-03T12:26:46.314Z,0.98
2022-08-03T12:29:27.992Z,0.98
2022-08-03T12:31:56.456Z,1.15
2022-08-03T12:34:24.545Z,1.10
2022-08-03T12:36:57.678Z,0.70
2022-08-03T12:39:30.881Z,1.35
2022-08-03T12:41:59.400Z,1.42
2022-08-03T12:44:31.496Z,1.27
2022-08-03T12:47:00.641Z,0.90
2022-08-03T12:49:30.479Z,1.05
2022-08-03T12:52:04.068Z,1.63
2022-08-03T12:54:36.326Z,1.23
2022-08-03T12:57:05.918Z,0.93
2022-08-03T12:59:40.674Z,0.90
2022-08-03T13:02:17.669Z,1.60
2022-08-03T13:04:47.283Z,1.25
2022-08-03T13:07:18.064Z,1.00
2022-08-03T13:09:50.772Z,0.63
2022-08-03T13:12:20.945Z,1.48
2022-08-03T13:14:51.829Z,0.98
2022-08-03T13:17:20.160Z,0.95
2022-08-03T13:19:49.049Z,0.85
2022-08-03T13:22:19.420Z,0.95
2022-08-03T13:24:51.001Z,1.27
2022-08-03T13:28:01.271Z,0.93
2022-08-03T13:30:09.525Z,0.95
2022-08-03T13:32:37.671Z,1.00
2022-08-03T13:35:06.853Z,1.13
2022-08-03T13:37:35.401Z,1.17
2022-08-03T13:40:08.176Z,1.08
2022-08-03T13:42:40.427Z,0.98
2022-08-03T13:45:09.683Z,0.90
2022-08-03T13:47:37.864Z,0.90
2022-08-03T13:50:06.398Z,0.73
2022-08-03T13:52:35.750Z,0.85
2022-08-03T13:55:06.150Z,1.13
2022-08-03T13:58:11.350Z,1.73
2022-08-03T14:00:26.519Z,1.77
2022-08-03T14:03:13.652Z,0.93
2022-08-03T14:05:42.854Z,1.20
2022-08-03T14:08:11.344Z,1.17
2022-08-03T14:10:43.110Z,1.60
2022-08-03T14:13:16.711Z,1.15
2022-08-03T14:15:49.852Z,1.45
2022-08-03T14:18:29.168Z,1.13
2022-08-03T14:21:05.823Z,1.52
2022-08-03T14:23:34.565Z,1.10
2022-08-03T14:26:03.945Z,1.35
2022-08-03T14:28:32.036Z,1.30
2022-08-03T14:31:00.026Z,1.48
2022-08-03T14:33:28.418Z,1.23
2022-08-03T14:35:56.628Z,0.95
2022-08-03T14:38:25.274Z,1.88
2022-08-03T14:40:53.844Z,1.27
2022-08-03T14:43:23.132Z,1.95
2022-08-03T14:45:53.377Z,1.35
2022-08-03T14:50:32.950Z,1.20
2022-08-03T14:51:10.439Z,1.80
2022-08-03T14:53:38.478Z,1.25
2022-08-03T14:56:10.456Z,1.20
2022-08-03T14:58:40.033Z,1.65
2022-08-03T15:02:02.513Z,1.38
2022-08-03T15:03:56.444Z,1.55
2022-08-03T15:06:24.400Z,1.35
2022-08-03T15:09:13.919Z,1.67
2022-08-03T15:11:40.224Z,1.10
2022-08-03T15:14:09.782Z,2.10
2022-08-03T15:16:38.338Z,1.83
2022-08-03T15:20:02.915Z,1.20
2022-08-03T15:21:54.497Z,1.85
2022-08-03T15:24:22.788Z,1.45
2022-08-03T15:26:51.462Z,1.67
2022-08-03T15:30:04.825Z,1.75
2022-08-03T15:32:09.740Z,1.50
2022-08-03T15:34:38.039Z,1.60
2022-08-03T15:37:12.902Z,1.65
2022-08-03T15:39:59.730Z,1.98
2022-08-03T15:42:29.709Z,1.80
2022-08-03T15:44:59.125Z,2.15
2022-08-03T15:47:27.462Z,2.10
2022-08-03T15:49:55.579Z,1.77
2022-08-03T15:52:23.654Z,1.45
2022-08-03T15:54:51.784Z,2.30
2022-08-03T15:57:20.180Z,1.73
2022-08-03T15:59:48.560Z,1.73
2022-08-03T16:02:17.972Z,1.73
2022-08-03T16:04:46.005Z,2.08
2022-08-03T16:07:15.657Z,1.70
2022-08-03T16:09:44.191Z,1.80
2022-08-03T16:12:15.617Z,1.73
2022-08-03T16:14:52.341Z,1.38
2022-08-03T16:17:24.213Z,1.30
2022-08-03T16:19:55.178Z,1.73
2022-08-03T16:22:23.994Z,1.38
2022-08-03T16:24:52.114Z,1.23
2022-08-03T16:28:00.340Z,1.75
2022-08-03T16:30:09.249Z,1.45
2022-08-03T16:32:39.852Z,1.75
2022-08-03T16:35:08.724Z,1.20
2022-08-03T16:37:38.512Z,1.75
2022-08-03T16:40:17.344Z,1.45
2022-08-03T16:42:47.359Z,2.00
2022-08-03T16:45:15.539Z,1.70
2022-08-03T16:47:45.364Z,1.35
2022-08-03T16:50:19.452Z,1.60
2022-08-03T16:52:48.492Z,1.92
2022-08-03T16:55:18.530Z,1.60
2022-08-03T16:58:06.427Z,1.75
2022-08-03T17:00:41.581Z,1.65
2022-08-03T17:03:18.893Z,1.90
2022-08-03T17:05:50.024Z,1.50
2022-08-03T17:08:26.521Z,1.60
2022-08-03T17:10:56.432Z,1.65
2022-08-03T17:13:38.750Z,1.80
2022-08-03T17:16:10.350Z,1.63
2022-08-03T17:18:47.551Z,1.27
2022-08-03T17:21:18.378Z,1.23
2022-08-03T17:23:53.403Z,1.20
2022-08-03T17:26:24.249Z,1.92
2022-08-03T17:29:11.267Z,1.23
2022-08-03T17:31:48.982Z,1.30
2022-08-03T17:34:19.806Z,0.90
2022-08-03T17:37:05.532Z,1.08
2022-08-03T17:42:30.634Z,1.63
2022-08-03T17:45:02.330Z,1.50
2022-08-03T17:47:41.770Z,1.42
2022-08-03T17:50:24.436Z,1.13
2022-08-03T17:53:07.807Z,1.60
2022-08-03T17:55:55.011Z,1.08
2022-08-03T17:58:34.986Z,1.10
2022-08-03T18:01:59.499Z,1.38
2022-08-03T18:04:13.601Z,1.30
2022-08-03T18:06:56.511Z,1.50
2022-08-03T18:10:04.771Z,1.50
2022-08-03T18:12:25.043Z,1.40
2022-08-03T18:15:01.185Z,1.60
2022-08-03T18:17:58.288Z,1.20
2022-08-03T18:20:34.199Z,1.10
2022-08-03T18:23:08.460Z,2.22
2022-08-03T18:25:45.279Z,1.27
2022-08-03T18:28:19.364Z,1.30
2022-08-03T18:30:54.101Z,1.15
2022-08-03T18:34:18.465Z,1.30
2022-08-03T18:36:17.754Z,1.73
2022-08-03T18:38:49.321Z,1.77
2022-08-03T18:41:31.918Z,1.92
2022-08-03T18:44:08.886Z,1.90
2022-08-03T18:47:07.085Z,2.13
2022-08-03T18:49:45.648Z,2.15
2022-08-03T18:52:17.810Z,1.85
2022-08-03T18:55:02.602Z,1.40
2022-08-03T18:57:46.532Z,1.52
2022-08-03T19:00:17.036Z,1.27
2022-08-03T19:02:50.506Z,1.50
2022-08-03T19:05:21.427Z,1.30
2022-08-03T19:07:59.644Z,1.40
2022-08-03T19:10:32.221Z,1.58
2022-08-03T19:13:04.867Z,1.77
2022-08-03T19:15:51.386Z,1.75
2022-08-03T19:18:22.570Z,1.75
2022-08-03T19:20:54.672Z,1.63
2022-08-03T19:23:25.700Z,2.10
2022-08-03T19:25:55.175Z,2.10
2022-08-03T19:28:29.644Z,1.00
2022-08-03T19:31:02.762Z,1.23
2022-08-03T19:33:55.665Z,1.00
2022-08-03T19:36:27.421Z,0.90
2022-08-03T19:38:57.105Z,1.40
2022-08-03T19:41:42.187Z,1.58
2022-08-03T19:44:12.298Z,1.63
2022-08-03T19:46:53.270Z,1.75
2022-08-03T19:49:26.071Z,1.30
2022-08-03T19:52:16.651Z,1.40
2022-08-03T19:54:54.608Z,1.10
2022-08-03T19:57:27.105Z,2.00
2022-08-03T19:59:57.148Z,1.45
2022-08-03T20:02:27.946Z,1.42
2022-08-03T20:04:59.835Z,1.38
2022-08-03T20:07:30.697Z,1.92
2022-08-03T20:10:01.458Z,2.30
2022-08-03T20:12:35.666Z,2.20
2022-08-03T20:15:08.670Z,1.95
2022-08-03T20:17:54.398Z,1.55
2022-08-03T20:20:26.879Z,1.70
2022-08-03T20:22:58.209Z,1.30
2022-08-03T20:25:38.753Z,2.22
2022-08-03T20:31:02.339Z,1.65
2022-08-03T20:33:46.179Z,1.88
2022-08-03T20:36:18.112Z,2.05
2022-08-03T20:38:47.874Z,2.08
2022-08-03T20:41:16.641Z,1.92
2022-08-03T20:43:46.412Z,2.30
2022-08-03T20:46:32.659Z,1.70
2022-08-03T20:49:07.932Z,1.92
2022-08-03T20:51:47.379Z,1.80
2022-08-03T20:54:29.838Z,2.33
2022-08-03T20:57:10.176Z,1.98
2022-08-03T20:59:50.757Z,2.42
2022-08-03T21:02:30.112Z,3.28
2022-08-03T21:05:03.758Z,1.83
2022-08-03T21:08:04.203Z,1.92
2022-08-03T21:10:31.586Z,2.53
2022-08-03T21:13:06.982Z,1.45
2022-08-03T21:13:16.161Z,2.15
2022-08-03T21:16:11.353Z,1.80
2022-08-03T21:18:38.675Z,2.00
2022-08-03T21:21:07.160Z,2.03
2022-08-03T21:23:47.699Z,1.60
2022-08-03T21:26:18.354Z,1.73
2022-08-03T21:28:47.426Z,2.13
2022-08-03T21:31:25.368Z,1.75
2022-08-03T21:33:56.418Z,2.50
2022-08-03T21:36:25.338Z,1.98
2022-08-03T21:38:55.888Z,2.00
2022-08-03T21:41:25.213Z,2.42
2022-08-03T21:43:53.133Z,2.00
2022-08-03T21:46:23.714Z,1.60
2022-08-03T21:48:56.751Z,2.72
2022-08-03T21:51:45.239Z,2.35
2022-08-03T21:54:14.514Z,2.20
2022-08-03T21:56:44.240Z,2.22
2022-08-03T21:59:18.256Z,2.40
2022-08-03T22:01:51.567Z,2.22
2022-08-03T22:04:50.560Z,2.40
2022-08-03T22:07:12.564Z,2.08
2022-08-03T22:09:40.766Z,2.20
2022-08-03T22:12:22.789Z,2.15
2022-08-03T22:15:01.147Z,2.70
2022-08-03T22:17:55.080Z,2.97
2022-08-03T22:20:21.062Z,2.17
2022-08-03T22:22:55.757Z,2.40
2022-08-03T22:25:28.713Z,2.53
2022-08-03T22:27:58.072Z,2.00
2022-08-03T22:30:26.042Z,2.45
2022-08-03T22:32:57.528Z,2.58
2022-08-03T22:35:27.452Z,2.20
2022-08-03T22:37:58.165Z,3.33
2022-08-03T22:40:27.869Z,3.00
2022-08-03T22:42:56.239Z,2.75
2022-08-03T22:46:07.095Z,2.50
2022-08-03T22:48:17.359Z,3.03
2022-08-03T22:50:46.718Z,2.50
2022-08-03T22:53:18.458Z,2.38
2022-08-03T22:55:46.900Z,2.78
2022-08-03T22:58:16.517Z,2.88
2022-08-03T23:00:48.444Z,2.97
2022-08-03T23:03:25.872Z,2.90
2022-08-03T23:06:16.445Z,3.08
2022-08-03T23:08:47.362Z,3.08
2022-08-03T23:11:18.552Z,2.40
2022-08-03T23:13:50.202Z,2.58
2022-08-03T23:16:28.857Z,2.83
2022-08-03T23:18:59.487Z,2.42
2022-08-03T23:21:53.072Z,2.50
2022-08-03T23:24:25.979Z,2.58
2022-08-03T23:26:58.234Z,2.53
2022-08-03T23:29:29.731Z,2.67
2022-08-03T23:31:58.426Z,2.20
2022-08-03T23:34:49.022Z,2.17
2022-08-03T23:37:17.603Z,2.00
2022-08-03T23:39:46.950Z,2.53
2022-08-03T23:42:17.256Z,3.03
2022-08-03T23:44:45.909Z,2.70
2022-08-03T23:47:14.278Z,3.00
2022-08-03T23:49:43.816Z,2.53
2022-08-03T23:52:20.066Z,3.10
2022-08-03T23:54:59.082Z,3.03
2022-08-03T23:57:30.940Z,3.30
